createdAt,value
2022-10-18T03:54:18.884Z,8.44
2022-10-18T03:57:21.871Z,8.39
2022-10-18T04:00:24.502Z,8.31
2022-10-18T04:03:27.380Z,8.24
2022-10-18T04:06:29.840Z,8.21
2022-10-18T04:09:32.645Z,8.23
2022-10-18T04:12:35.120Z,8.17
2022-10-18T04:15:37.872Z,8.13
2022-10-18T04:18:40.317Z,8.09
2022-10-18T04:21:43.168Z,8.03
2022-10-18T04:24:45.661Z,7.93
2022-10-18T04:27:48.360Z,7.89
2022-10-18T04:30:54.229Z,7.95
2022-10-18T04:33:57.000Z,7.94
2022-10-18T04:36:59.533Z,7.93
2022-10-18T04:40:02.371Z,7.94
2022-10-18T04:43:04.778Z,7.94
2022-10-18T04:46:07.577Z,8.03
2022-10-18T04:49:10.088Z,8.12
2022-10-18T04:52:13.452Z,8.13
2022-10-18T04:55:15.983Z,8.13
2022-10-18T04:58:19.825Z,8.11
2022-10-18T05:01:22.363Z,8.09
2022-10-18T05:04:25.202Z,8.03
2022-10-18T05:07:27.634Z,8.06
2022-10-18T05:10:32.707Z,8.01
2022-10-18T05:13:35.122Z,8.02
2022-10-18T05:16:37.779Z,8.00
2022-10-18T05:19:40.770Z,8.00
2022-10-18T05:22:43.569Z,8.04
2022-10-18T05:25:46.337Z,7.95
2022-10-18T05:28:50.590Z,7.99
2022-10-18T05:31:53.160Z,8.06
2022-10-18T05:34:55.896Z,8.10
2022-10-18T05:37:58.391Z,8.05
2022-10-18T05:41:04.548Z,8.00
2022-10-18T05:44:07.329Z,8.10
2022-10-18T05:47:10.055Z,8.23
2022-10-18T05:50:12.683Z,8.20
2022-10-18T05:53:35.743Z,8.25
2022-10-18T05:59:47.195Z,8.30
2022-10-18T06:02:49.784Z,8.46
2022-10-18T06:05:52.589Z,8.57
2022-10-18T06:08:55.298Z,8.72
2022-10-18T06:11:58.073Z,8.96
2022-10-18T06:15:00.642Z,9.13
2022-10-18T06:18:03.403Z,9.30
2022-10-18T06:21:06.123Z,9.48
2022-10-18T06:24:08.922Z,9.67
2022-10-18T06:27:11.457Z,9.77
2022-10-18T06:30:15.628Z,9.89
2022-10-18T06:33:18.106Z,9.99
2022-10-18T06:36:24.087Z,10.11
2022-10-18T06:39:26.816Z,10.22
2022-10-18T06:42:32.236Z,10.32
2022-10-18T06:45:34.967Z,10.42
2022-10-18T06:48:38.937Z,10.52
2022-10-18T06:51:44.730Z,10.69
2022-10-18T06:54:47.470Z,10.81
2022-10-18T06:57:49.985Z,10.97
2022-10-18T07:00:52.765Z,11.10
2022-10-18T07:03:56.037Z,11.13
2022-10-18T07:06:58.834Z,11.23
2022-10-18T07:10:01.244Z,11.48
2022-10-18T07:13:27.270Z,11.68
2022-10-18T07:16:26.642Z,11.77
2022-10-18T07:19:29.412Z,11.95
2022-10-18T07:22:31.837Z,12.08
2022-10-18T07:25:35.397Z,12.27
2022-10-18T07:28:37.869Z,12.46
2022-10-18T07:31:41.038Z,12.64
2022-10-18T07:34:43.613Z,12.79
2022-10-18T07:37:46.345Z,12.93
2022-10-18T07:40:48.998Z,13.06
2022-10-18T07:43:52.927Z,13.34
2022-10-18T07:46:55.428Z,13.34
2022-10-18T07:50:02.409Z,13.47
2022-10-18T07:53:04.908Z,13.64
2022-10-18T07:56:15.869Z,13.67
2022-10-18T07:59:18.390Z,13.84
2022-10-18T08:02:21.100Z,14.05
2022-10-18T08:05:24.746Z,14.19
2022-10-18T08:08:27.935Z,14.27
2022-10-18T08:11:30.689Z,14.43
2022-10-18T08:14:33.177Z,14.50
2022-10-18T08:17:35.942Z,14.66
2022-10-18T08:20:43.752Z,14.90
2022-10-18T08:23:47.511Z,14.96
2022-10-18T08:26:50.538Z,15.13
2022-10-18T08:29:53.374Z,15.19
2022-10-18T08:32:55.867Z,15.34
2022-10-18T08:36:00.828Z,15.57
2022-10-18T08:39:03.706Z,15.76
2022-10-18T08:42:39.803Z,16.01
2022-10-18T08:45:44.251Z,16.13
2022-10-18T08:48:54.124Z,16.13
2022-10-18T08:51:58.128Z,16.15
2022-10-18T08:55:17.286Z,16.51
2022-10-18T08:58:21.521Z,16.69
2022-10-18T09:01:24.230Z,16.83
2022-10-18T09:04:49.238Z,16.81
2022-10-18T09:08:11.540Z,17.03
2022-10-18T09:11:35.752Z,17.29
2022-10-18T09:14:47.240Z,17.41
2022-10-18T09:18:10.539Z,17.62
2022-10-18T09:21:22.777Z,17.63
2022-10-18T09:24:43.244Z,17.79
2022-10-18T09:27:55.186Z,17.79
2022-10-18T09:31:18.930Z,18.02
2022-10-18T09:34:50.678Z,18.01
2022-10-18T09:38:00.533Z,18.00
2022-10-18T09:41:13.703Z,18.01
2022-10-18T09:44:22.505Z,18.10
2022-10-18T09:47:44.754Z,18.26
2022-10-18T09:50:54.821Z,18.53
2022-10-18T09:54:19.277Z,18.59
2022-10-18T09:57:37.610Z,18.55
2022-10-18T10:00:48.387Z,18.76
2022-10-18T10:03:51.980Z,18.80
2022-10-18T10:06:56.694Z,18.97
2022-10-18T10:10:08.474Z,19.01
2022-10-18T10:13:26.303Z,19.05
2022-10-18T10:16:29.179Z,19.23
2022-10-18T10:19:38.301Z,19.32
2022-10-18T10:22:42.514Z,19.33
2022-10-18T10:25:51.814Z,19.51
2022-10-18T10:28:57.527Z,19.35
2022-10-18T10:32:04.289Z,19.49
2022-10-18T10:35:41.297Z,19.31
2022-10-18T10:39:16.162Z,19.29
2022-10-18T10:42:19.188Z,19.68
2022-10-18T10:45:23.696Z,19.76
2022-10-18T10:48:33.001Z,19.88
2022-10-18T10:51:38.978Z,20.06
2022-10-18T10:54:50.394Z,20.13
2022-10-18T10:57:56.303Z,20.31
2022-10-18T11:01:18.423Z,20.74
2022-10-18T11:04:31.939Z,20.79
2022-10-18T11:07:44.205Z,21.32
2022-10-18T11:11:13.714Z,21.78
2022-10-18T11:14:26.590Z,21.94
2022-10-18T11:17:59.829Z,22.32
2022-10-18T11:21:15.943Z,22.93
2022-10-18T11:24:18.613Z,23.58
2022-10-18T11:27:43.090Z,24.02
2022-10-18T11:30:50.199Z,24.60
2022-10-18T11:34:20.968Z,24.53
2022-10-18T11:37:48.523Z,25.24
2022-10-18T11:41:30.550Z,26.30
2022-10-18T11:44:50.071Z,26.68
2022-10-18T11:48:13.505Z,27.72
2022-10-18T11:51:29.766Z,29.79
2022-10-18T11:55:03.294Z,29.77
2022-10-18T11:58:31.577Z,31.82
2022-10-18T12:02:11.844Z,32.71
2022-10-18T12:05:23.989Z,31.66
2022-10-18T12:08:31.636Z,32.37
2022-10-18T12:11:47.186Z,34.35
2022-10-18T12:14:50.200Z,34.71
2022-10-18T12:18:01.978Z,34.79
2022-10-18T12:21:06.451Z,34.05
2022-10-18T12:24:16.093Z,35.51
2022-10-18T12:27:23.640Z,35.53
2022-10-18T12:30:47.271Z,35.83
2022-10-18T12:33:55.581Z,35.36
2022-10-18T12:37:17.152Z,34.26
2022-10-18T12:40:25.904Z,32.26
2022-10-18T12:43:36.854Z,30.38
2022-10-18T12:47:00.030Z,27.92
2022-10-18T12:50:08.432Z,25.84
2022-10-18T12:53:19.031Z,24.24
2022-10-18T12:56:27.776Z,23.46
2022-10-18T12:59:30.146Z,22.78
2022-10-18T13:02:33.393Z,22.30
2022-10-18T13:06:06.477Z,21.86
2022-10-18T13:09:17.234Z,21.69
2022-10-18T13:12:19.763Z,21.56
2022-10-18T13:15:52.579Z,21.31
2022-10-18T13:19:08.852Z,21.27
2022-10-18T13:22:30.670Z,21.09
2022-10-18T13:25:49.872Z,20.97
2022-10-18T13:29:28.274Z,20.76
2022-10-18T13:32:47.172Z,20.57
2022-10-18T13:35:57.209Z,20.49
2022-10-18T13:39:03.334Z,20.36
2022-10-18T13:42:15.344Z,20.37
2022-10-18T13:45:33.145Z,20.42
2022-10-18T13:48:35.932Z,20.20
2022-10-18T13:51:46.554Z,20.13
2022-10-18T13:55:13.933Z,19.95
2022-10-18T13:59:13.090Z,19.89
2022-10-18T14:02:51.718Z,19.73
2022-10-18T14:06:02.962Z,19.75
2022-10-18T14:09:25.562Z,19.75
2022-10-18T14:12:44.360Z,19.56
2022-10-18T14:15:52.033Z,19.49
2022-10-18T14:19:01.053Z,19.35
2022-10-18T14:22:21.015Z,19.33
2022-10-18T14:25:30.781Z,19.22
2022-10-18T14:28:55.155Z,19.31
2022-10-18T14:31:58.062Z,19.28
2022-10-18T14:35:27.567Z,19.26
2022-10-18T14:38:24.504Z,19.16
2022-10-18T14:41:32.933Z,19.05
2022-10-18T14:44:35.817Z,18.93
2022-10-18T14:47:39.761Z,18.88
2022-10-18T14:50:46.061Z,18.77
2022-10-18T14:53:49.317Z,18.83
2022-10-18T14:56:52.602Z,18.86
2022-10-18T15:00:03.169Z,18.94
2022-10-18T15:03:11.245Z,19.02
2022-10-18T15:06:20.524Z,18.93
2022-10-18T15:09:24.405Z,18.75
2022-10-18T15:12:33.994Z,18.59
2022-10-18T15:15:49.823Z,18.50
2022-10-18T15:19:15.143Z,18.28
2022-10-18T15:22:32.132Z,18.04
2022-10-18T15:25:35.959Z,17.78
2022-10-18T15:28:52.522Z,17.58
2022-10-18T15:31:55.271Z,17.42
2022-10-18T15:35:20.986Z,17.29
2022-10-18T15:38:31.889Z,17.17
2022-10-18T15:41:43.049Z,17.01
2022-10-18T15:44:51.251Z,16.86
2022-10-18T15:48:01.341Z,16.73
2022-10-18T15:51:28.253Z,16.58
2022-10-18T15:54:31.140Z,16.39
